createdAt,value
2019-02-09T00:02:05.174Z,12.05
2019-02-09T00:07:07.857Z,12.15
2019-02-09T00:12:10.549Z,12.01
2019-02-09T00:17:13.256Z,11.76
2019-02-09T00:22:15.926Z,11.71
2019-02-09T00:27:18.629Z,11.65
2019-02-09T00:32:21.326Z,11.42
2019-02-09T00:37:23.994Z,11.44
2019-02-09T00:42:26.667Z,11.32
2019-02-09T00:47:29.331Z,11.26
2019-02-09T00:52:32.010Z,11.24
2019-02-09T00:57:34.663Z,11.23
2019-02-09T01:02:37.355Z,11.27
2019-02-09T01:07:40.229Z,11.23
2019-02-09T01:12:42.924Z,11.18
2019-02-09T01:17:45.826Z,11.12
2019-02-09T01:22:48.714Z,11.00
2019-02-09T01:27:51.676Z,10.92
2019-02-09T01:32:54.581Z,10.92
2019-02-09T01:37:57.523Z,10.97
2019-02-09T01:43:00.218Z,10.95
2019-02-09T01:48:03.494Z,10.83
2019-02-09T01:53:06.158Z,10.90
2019-02-09T01:58:08.840Z,10.74
2019-02-09T02:03:11.510Z,10.71
2019-02-09T02:08:17.035Z,10.65
2019-02-09T02:13:19.716Z,10.67
2019-02-09T02:18:22.383Z,10.44
2019-02-09T02:23:25.056Z,10.46
2019-02-09T02:28:27.715Z,10.47
2019-02-09T02:33:30.389Z,10.44
2019-02-09T02:38:33.062Z,10.51
2019-02-09T02:43:35.762Z,10.45
2019-02-09T02:48:38.460Z,10.45
2019-02-09T02:53:41.140Z,10.40
2019-02-09T02:58:43.846Z,10.45
2019-02-09T03:03:46.559Z,10.50
2019-02-09T03:08:49.295Z,10.39
2019-02-09T03:13:51.971Z,10.48
2019-02-09T03:18:54.632Z,10.58
2019-02-09T03:23:57.301Z,10.47
2019-02-09T03:28:59.992Z,10.47
2019-02-09T03:34:02.694Z,10.49
2019-02-09T03:39:06.820Z,10.57
2019-02-09T03:44:09.517Z,10.62
2019-02-09T03:49:12.304Z,10.59
2019-02-09T03:54:15.813Z,10.53
2019-02-09T03:59:18.512Z,10.65
2019-02-09T04:04:21.200Z,10.72
2019-02-09T04:09:23.925Z,10.61
2019-02-09T04:14:26.607Z,10.64
2019-02-09T04:19:29.305Z,10.50
2019-02-09T04:24:31.992Z,10.72
2019-02-09T04:29:34.689Z,10.72
2019-02-09T04:34:37.390Z,10.69
2019-02-09T04:39:40.053Z,10.73
2019-02-09T04:44:42.737Z,10.54
2019-02-09T04:49:45.415Z,10.62
2019-02-09T04:54:48.128Z,10.66
2019-02-09T04:59:50.807Z,10.69
2019-02-09T05:04:53.499Z,10.72
2019-02-09T05:09:56.205Z,10.67
2019-02-09T05:14:58.983Z,10.58
2019-02-09T05:20:01.674Z,10.58
2019-02-09T05:25:05.298Z,10.49
2019-02-09T05:30:15.857Z,10.49
2019-02-09T05:35:18.580Z,10.49
2019-02-09T05:40:21.874Z,10.40
2019-02-09T05:45:26.449Z,10.40
2019-02-09T05:50:29.304Z,10.44
2019-02-09T05:55:32.288Z,10.60
2019-02-09T06:00:37.662Z,10.68
2019-02-09T06:05:40.346Z,10.85
2019-02-09T06:10:43.304Z,10.69
2019-02-09T06:15:46.183Z,10.88
2019-02-09T06:20:48.899Z,10.82
2019-02-09T06:25:51.584Z,10.91
2019-02-09T06:30:54.695Z,10.69
2019-02-09T06:35:57.412Z,9.74
2019-02-09T06:41:00.080Z,9.42
2019-02-09T06:46:03.674Z,9.24
2019-02-09T06:51:06.396Z,9.14
2019-02-09T06:56:09.094Z,9.10
2019-02-09T07:01:11.780Z,9.16
2019-02-09T07:06:14.446Z,9.44
2019-02-09T07:11:17.216Z,9.60
2019-02-09T07:16:19.892Z,9.58
2019-02-09T07:21:22.572Z,9.60
2019-02-09T07:26:25.271Z,9.63
2019-02-09T07:31:27.934Z,9.82
2019-02-09T07:36:30.613Z,9.97
2019-02-09T07:41:34.273Z,10.08
2019-02-09T07:46:36.975Z,10.10
2019-02-09T07:51:39.676Z,10.18
2019-02-09T07:56:42.350Z,9.98
2019-02-09T08:01:45.087Z,10.11
2019-02-09T08:06:47.973Z,10.33
2019-02-09T08:11:50.796Z,10.65
2019-02-09T08:16:53.469Z,10.57
2019-02-09T08:21:56.173Z,10.73
2019-02-09T08:26:58.857Z,10.81
2019-02-09T08:32:01.548Z,10.83
2019-02-09T08:42:14.119Z,11.08
2019-02-09T08:47:36.817Z,11.01
2019-02-09T08:52:59.561Z,11.08
2019-02-09T08:58:22.457Z,11.20
2019-02-09T09:03:26.462Z,11.27
2019-02-09T09:08:41.457Z,11.08
2019-02-09T09:14:03.957Z,11.39
2019-02-09T09:19:26.969Z,11.34
2019-02-09T09:24:49.999Z,11.53
2019-02-09T09:35:45.213Z,11.79
2019-02-09T09:41:08.415Z,11.88
2019-02-09T09:46:11.608Z,11.94
2019-02-09T09:51:33.893Z,11.76
2019-02-09T09:56:37.606Z,11.28
2019-02-09T10:01:40.351Z,12.01
2019-02-09T10:06:43.093Z,11.75
2019-02-09T10:11:58.621Z,11.93
2019-02-09T10:17:20.808Z,12.18
2019-02-09T10:22:43.008Z,12.71
2019-02-09T10:27:45.799Z,12.69
2019-02-09T10:33:08.028Z,12.94
2019-02-09T10:38:30.203Z,13.03
2019-02-09T10:43:53.163Z,13.20
2019-02-09T10:49:16.808Z,10.53
2019-02-09T10:54:38.985Z,11.66
2019-02-09T11:00:01.175Z,12.87
2019-02-09T11:05:23.350Z,10.55
2019-02-09T11:10:38.521Z,11.66
2019-02-09T11:15:41.351Z,12.72
2019-02-09T11:20:44.965Z,12.76
2019-02-09T11:26:07.160Z,12.51
2019-02-09T11:31:30.166Z,12.06
2019-02-09T11:42:42.909Z,11.46
2019-02-09T11:48:06.108Z,10.51
2019-02-09T11:53:11.584Z,10.59
2019-02-09T11:58:34.227Z,11.17
2019-02-09T12:03:57.010Z,9.60
2019-02-09T12:09:12.502Z,12.44
2019-02-09T12:14:37.837Z,12.48
2019-02-09T12:20:00.716Z,13.00
2019-02-09T12:26:05.716Z,13.15
2019-02-09T12:37:10.568Z,12.79
2019-02-09T12:42:33.526Z,12.96
2019-02-09T12:47:56.532Z,12.84
2019-02-09T12:53:19.459Z,12.64
2019-02-09T12:58:41.714Z,12.54
2019-02-09T13:04:04.461Z,12.41
2019-02-09T13:09:19.289Z,12.48
2019-02-09T13:14:41.460Z,12.49
2019-02-09T13:20:05.622Z,12.59
2019-02-09T13:25:27.834Z,11.95
2019-02-09T13:30:50.118Z,12.75
2019-02-09T13:36:12.306Z,11.02
2019-02-09T13:41:34.479Z,12.75
2019-02-09T13:46:56.661Z,10.44
2019-02-09T13:52:18.842Z,12.55
2019-02-09T13:57:21.586Z,12.67
2019-02-09T14:02:24.353Z,12.78
2019-02-09T14:07:46.549Z,12.57
2019-02-09T14:13:02.415Z,12.53
2019-02-09T14:18:24.583Z,10.40
2019-02-09T14:23:46.795Z,12.64
2019-02-09T14:29:08.966Z,12.53
2019-02-09T14:34:11.645Z,12.00
2019-02-09T14:39:33.810Z,11.29
2019-02-09T14:44:55.991Z,11.28
2019-02-09T14:50:18.761Z,11.13
2019-02-09T14:55:40.941Z,9.68
2019-02-09T15:01:03.438Z,9.70
2019-02-09T15:06:25.615Z,8.91
2019-02-09T15:11:40.992Z,9.76
2019-02-09T15:17:05.435Z,9.62
2019-02-09T15:22:27.214Z,9.99
2019-02-09T15:27:49.410Z,10.11
2019-02-09T15:32:52.112Z,10.31
2019-02-09T15:37:54.786Z,10.49
2019-02-09T15:43:16.972Z,10.67
2019-02-09T15:48:40.076Z,10.77
2019-02-09T15:54:02.328Z,10.92
2019-02-09T15:59:25.165Z,10.82
2019-02-09T16:04:47.386Z,10.78
2019-02-09T16:10:02.213Z,11.00
2019-02-09T16:15:25.404Z,8.75
2019-02-09T16:20:47.611Z,9.25
2019-02-09T16:26:09.793Z,10.82
2019-02-09T16:31:12.476Z,10.88
2019-02-09T16:36:34.633Z,10.88
2019-02-09T16:41:56.806Z,10.85
2019-02-09T16:47:18.978Z,9.02
2019-02-09T16:52:41.269Z,8.41
2019-02-09T16:58:04.404Z,10.70
2019-02-09T17:03:26.729Z,10.99
2019-02-09T17:08:41.685Z,11.04
2019-02-09T17:14:03.976Z,11.18
2019-02-09T17:19:26.167Z,9.43
2019-02-09T17:24:48.358Z,10.08
2019-02-09T17:30:30.083Z,11.12
2019-02-09T17:35:52.257Z,11.04
2019-02-09T17:41:14.464Z,10.99
2019-02-09T17:46:17.434Z,9.19
2019-02-09T17:51:39.620Z,10.94
2019-02-09T17:57:01.802Z,10.83
2019-02-09T18:02:23.996Z,10.68
2019-02-09T18:07:46.188Z,10.62
2019-02-09T18:13:01.509Z,10.76
2019-02-09T18:18:23.687Z,10.81
2019-02-09T18:23:45.853Z,9.01
2019-02-09T18:28:48.553Z,10.69
2019-02-09T18:34:10.723Z,10.73
2019-02-09T18:39:13.405Z,10.15
2019-02-09T18:44:17.129Z,10.96
2019-02-09T18:49:19.810Z,10.96
2019-02-09T18:54:34.473Z,11.04
2019-02-09T18:59:46.702Z,11.04
2019-02-09T19:05:10.162Z,10.99
2019-02-09T19:10:17.758Z,10.90
2019-02-09T19:15:40.012Z,10.92
2019-02-09T19:21:02.343Z,9.39
2019-02-09T19:26:24.561Z,10.91
2019-02-09T19:31:46.737Z,10.98
2019-02-09T19:37:08.913Z,11.10
2019-02-09T19:42:11.669Z,11.15
2019-02-09T19:47:33.858Z,11.02
2019-02-09T19:52:56.033Z,11.06
2019-02-09T19:57:58.710Z,11.01
2019-02-09T20:03:20.885Z,11.10
2019-02-09T20:08:43.055Z,11.09
2019-02-09T20:13:58.769Z,11.09
2019-02-09T20:19:20.946Z,11.08
2019-02-09T20:24:43.129Z,10.02
2019-02-09T20:30:10.045Z,10.85
2019-02-09T20:35:54.092Z,10.75
2019-02-09T20:41:01.807Z,10.77
2019-02-09T20:46:24.083Z,10.56
2019-02-09T20:51:46.286Z,9.73
2019-02-09T20:57:08.453Z,8.98
2019-02-09T21:02:31.707Z,10.73
2019-02-09T21:07:34.529Z,10.70
2019-02-09T21:12:51.703Z,10.66
2019-02-09T21:18:13.889Z,10.62
2019-02-09T21:23:16.609Z,7.98
2019-02-09T21:28:19.361Z,10.61
2019-02-09T21:33:41.557Z,10.61
2019-02-09T21:38:44.229Z,8.64
2019-02-09T21:43:46.900Z,10.18
2019-02-09T21:48:49.584Z,10.13
2019-02-09T21:53:52.259Z,10.00
2019-02-09T21:58:54.929Z,10.10
2019-02-09T22:04:17.247Z,10.06
2019-02-09T22:09:39.402Z,10.08
2019-02-09T22:15:01.584Z,8.66
2019-02-09T22:20:23.736Z,9.09
2019-02-09T22:25:26.748Z,7.72
2019-02-09T22:30:49.007Z,10.00
2019-02-09T22:36:11.256Z,10.09
2019-02-09T22:41:33.488Z,9.25
2019-02-09T22:46:55.657Z,10.45
2019-02-09T22:52:17.835Z,10.55
2019-02-09T22:57:40.064Z,10.55
2019-02-09T23:03:05.347Z,8.43
2019-02-09T23:08:08.002Z,10.77
2019-02-09T23:13:10.682Z,10.81
2019-02-09T23:18:32.857Z,10.81
2019-02-09T23:23:35.533Z,10.78
2019-02-09T23:28:50.453Z,10.66
2019-02-09T23:33:53.137Z,10.57
2019-02-09T23:39:15.313Z,10.55
2019-02-09T23:44:37.651Z,9.79
2019-02-09T23:49:40.317Z,10.39
2019-02-09T23:55:02.530Z,10.49
